Time;durP1;ratioP1;P1;durP2;ratioP2;P2;SDS_P1;SDS_P2;PMS_P1;PMS_P2;Temp;Humidity;BMP_temperature;BMP_pressure;BME280_temperature;BME280_humidity;BME280_pressure;Samples;Min_cycle;Max_cycle;Signal;HPM_P1;HPM_P2
2021/06/21 00:00:42;;;;;;;4.93;1.90;;;;;;;;;;5014523;28;22978;-79
2021/06/21 00:03:09;;;;;;;6.57;2.00;;;;;;;;;;5007305;28;20060;-79
2021/06/21 00:05:36;;;;;;;7.32;2.28;;;;;;;;;;5011900;28;20156;-79
2021/06/21 00:08:04;;;;;;;8.65;2.20;;;;;;;;;;5007602;28;20081;-78
2021/06/21 00:10:31;;;;;;;5.00;2.00;;;;;;;;;;5009500;28;20141;-79
2021/06/21 00:12:58;;;;;;;6.85;2.10;;;;;;;;;;5013273;28;20137;-79
2021/06/21 00:15:27;;;;;;;9.68;1.98;;;;;;;;;;5007859;28;20379;-79
2021/06/21 00:17:54;;;;;;;7.97;1.60;;;;;;;;;;4999492;28;20058;-82
2021/06/21 00:20:22;;;;;;;5.90;1.63;;;;;;;;;;5006176;28;20077;-82
2021/06/21 00:22:50;;;;;;;10.05;1.83;;;;;;;;;;5008228;28;20077;-82
2021/06/21 00:25:17;;;;;;;7.20;2.13;;;;;;;;;;5017659;28;20124;-82
2021/06/21 00:27:45;;;;;;;5.38;2.15;;;;;;;;;;5012969;28;20046;-82
2021/06/21 00:30:14;;;;;;;5.15;1.80;;;;;;;;;;4948652;28;20079;-82
2021/06/21 00:32:42;;;;;;;8.80;1.88;;;;;;;;;;4939652;28;20051;-82
2021/06/21 00:35:09;;;;;;;6.07;2.00;;;;;;;;;;4932731;28;20134;-83
2021/06/21 00:37:37;;;;;;;6.05;1.80;;;;;;;;;;4936416;28;20071;-82
2021/06/21 00:40:05;;;;;;;5.40;2.25;;;;;;;;;;4926919;28;20159;-78
2021/06/21 00:42:36;;;;;;;5.38;1.90;;;;;;;;;;4925966;28;20147;-78
2021/06/21 00:45:03;;;;;;;5.85;2.28;;;;;;;;;;4919070;28;20040;-78
2021/06/21 00:47:31;;;;;;;15.88;2.50;;;;;;;;;;4935983;28;20600;-79
2021/06/21 00:49:58;;;;;;;12.93;2.17;;;;;;;;;;4932072;28;20058;-79
2021/06/21 00:52:26;;;;;;;4.47;1.98;;;;;;;;;;4928527;28;20658;-78
2021/06/21 00:55:02;;;;;;;4.75;1.90;;;;;;;;;;4926250;28;20056;-79
2021/06/21 00:57:33;;;;;;;7.03;2.20;;;;;;;;;;4934604;28;20179;-78
2021/06/21 01:00:01;;;;;;;3.92;1.65;;;;;;;;;;4934308;28;20651;-78
2021/06/21 01:02:29;;;;;;;5.32;2.33;;;;;;;;;;4934509;28;20083;-79
2021/06/21 01:04:57;;;;;;;5.97;2.00;;;;;;;;;;4927650;28;20689;-79
2021/06/21 01:07:25;;;;;;;6.40;2.03;;;;;;;;;;4924818;28;20156;-79
2021/06/21 01:09:53;;;;;;;4.10;2.03;;;;;;;;;;4912229;28;20046;-79
2021/06/21 01:12:33;;;;;;;5.35;2.00;;;;;;;;;;4933537;28;20166;-78
2021/06/21 01:15:07;;;;;;;6.90;2.35;;;;;;;;;;4935626;28;20048;-79
2021/06/21 01:17:34;;;;;;;4.18;1.60;;;;;;;;;;4939349;28;20691;-78
2021/06/21 01:20:15;;;;;;;4.38;1.65;;;;;;;;;;4931929;28;20588;-78
2021/06/21 01:22:54;;;;;;;10.57;2.42;;;;;;;;;;5003080;28;20238;-78
2021/06/21 01:25:22;;;;;;;8.43;2.63;;;;;;;;;;4928713;28;20133;-79
2021/06/21 01:27:59;;;;;;;7.03;2.22;;;;;;;;;;4929144;28;20060;-78
2021/06/21 01:30:39;;;;;;;7.53;2.72;;;;;;;;;;4930242;28;20174;-79
2021/06/21 01:33:07;;;;;;;4.20;1.90;;;;;;;;;;4926932;28;20415;-78
2021/06/21 01:35:36;;;;;;;6.85;1.92;;;;;;;;;;4932257;28;20059;-78
2021/06/21 01:38:17;;;;;;;4.70;1.95;;;;;;;;;;4934867;28;20131;-78
2021/06/21 01:40:48;;;;;;;5.45;1.98;;;;;;;;;;4926637;28;20110;-78
2021/06/21 01:43:18;;;;;;;8.32;2.22;;;;;;;;;;4933392;28;20130;-78
2021/06/21 01:45:46;;;;;;;9.27;2.05;;;;;;;;;;4932572;28;20238;-78
2021/06/21 01:48:13;;;;;;;3.70;2.20;;;;;;;;;;4930599;28;20047;-78
2021/06/21 01:50:41;;;;;;;9.57;2.13;;;;;;;;;;4932299;28;20078;-79
2021/06/21 01:53:08;;;;;;;7.93;2.03;;;;;;;;;;4932310;28;20131;-79
2021/06/21 01:55:38;;;;;;;10.63;2.78;;;;;;;;;;4926656;28;20043;-79
2021/06/21 01:58:06;;;;;;;7.38;2.55;;;;;;;;;;4922560;28;20087;-79
2021/06/21 02:00:34;;;;;;;9.95;2.90;;;;;;;;;;4926520;28;20453;-79
2021/06/21 02:03:01;;;;;;;7.65;2.85;;;;;;;;;;4932996;28;21394;-79
2021/06/21 02:05:31;;;;;;;16.38;3.53;;;;;;;;;;4929394;28;20127;-79
2021/06/21 02:08:01;;;;;;;13.43;3.45;;;;;;;;;;4923475;28;20146;-79
2021/06/21 02:10:28;;;;;;;14.52;3.90;;;;;;;;;;4927239;28;20178;-79
2021/06/21 02:12:56;;;;;;;11.43;3.47;;;;;;;;;;4931340;28;20127;-79
2021/06/21 02:15:23;;;;;;;11.50;4.00;;;;;;;;;;4929146;28;20056;-79
2021/06/21 02:17:51;;;;;;;9.48;3.33;;;;;;;;;;4927189;28;20147;-79
2021/06/21 02:20:20;;;;;;;12.38;3.47;;;;;;;;;;4934528;28;20711;-79
2021/06/21 02:22:47;;;;;;;13.70;3.50;;;;;;;;;;4932896;28;20139;-79
2021/06/21 02:25:16;;;;;;;6.78;3.47;;;;;;;;;;4916865;28;20055;-79
2021/06/21 02:27:44;;;;;;;10.73;3.05;;;;;;;;;;5003997;28;20047;-78
2021/06/21 02:30:13;;;;;;;8.60;2.92;;;;;;;;;;4932690;28;20134;-79
2021/06/21 02:32:43;;;;;;;8.25;3.45;;;;;;;;;;4923537;28;20078;-79
2021/06/21 02:35:10;;;;;;;11.82;3.58;;;;;;;;;;4934789;28;20143;-79
2021/06/21 02:37:39;;;;;;;7.38;3.40;;;;;;;;;;4934049;28;20097;-79
2021/06/21 02:40:07;;;;;;;7.03;2.88;;;;;;;;;;4924864;28;20565;-78
2021/06/21 02:42:34;;;;;;;11.82;3.30;;;;;;;;;;4934799;28;20055;-79
2021/06/21 02:45:01;;;;;;;11.75;3.50;;;;;;;;;;4936030;28;20147;-79
2021/06/21 02:47:29;;;;;;;9.38;3.97;;;;;;;;;;4932706;28;20139;-78
2021/06/21 02:49:56;;;;;;;15.55;3.30;;;;;;;;;;4927436;28;20138;-79
2021/06/21 02:52:42;;;;;;;6.68;3.22;;;;;;;;;;4935076;28;20480;-78
2021/06/21 02:55:12;;;;;;;10.48;3.50;;;;;;;;;;4928907;28;20559;-78
2021/06/21 02:57:54;;;;;;;11.77;3.55;;;;;;;;;;4928927;28;20158;-78
2021/06/21 03:00:22;;;;;;;10.90;3.40;;;;;;;;;;4929124;28;20056;-78
2021/06/21 03:02:49;;;;;;;17.27;4.22;;;;;;;;;;4922989;28;20134;-78
2021/06/21 03:05:18;;;;;;;10.02;3.25;;;;;;;;;;4934373;28;20138;-78
2021/06/21 03:07:48;;;;;;;12.55;3.45;;;;;;;;;;4932296;28;20051;-79
2021/06/21 03:10:16;;;;;;;10.43;4.22;;;;;;;;;;5001693;28;20090;-78
2021/06/21 03:12:45;;;;;;;12.48;3.67;;;;;;;;;;4929261;28;20466;-79
2021/06/21 03:15:14;;;;;;;11.13;3.67;;;;;;;;;;4930031;28;20043;-79
2021/06/21 03:17:42;;;;;;;11.38;3.45;;;;;;;;;;4923064;28;20130;-78
2021/06/21 03:20:10;;;;;;;10.30;3.50;;;;;;;;;;4929847;28;20127;-79
2021/06/21 03:22:39;;;;;;;9.68;3.55;;;;;;;;;;4930324;28;20548;-79
2021/06/21 03:25:07;;;;;;;12.20;4.40;;;;;;;;;;4931887;28;20512;-79
2021/06/21 03:27:35;;;;;;;15.13;4.10;;;;;;;;;;4932355;28;20051;-79
2021/06/21 03:30:10;;;;;;;8.68;3.22;;;;;;;;;;4931729;28;20043;-79
2021/06/21 03:32:43;;;;;;;19.88;3.92;;;;;;;;;;4926881;28;20075;-79
2021/06/21 03:35:13;;;;;;;18.40;4.57;;;;;;;;;;4995121;28;20134;-80
2021/06/21 03:37:41;;;;;;;15.77;3.70;;;;;;;;;;4934578;28;20087;-79
2021/06/21 03:40:09;;;;;;;12.15;4.95;;;;;;;;;;4944586;28;20221;-80
2021/06/21 03:42:37;;;;;;;16.83;4.55;;;;;;;;;;4925264;28;20056;-81
2021/06/21 03:45:08;;;;;;;10.07;4.20;;;;;;;;;;4925359;28;20074;-81
2021/06/21 03:47:36;;;;;;;12.30;3.95;;;;;;;;;;4932711;28;20128;-81
2021/06/21 03:50:05;;;;;;;13.82;4.43;;;;;;;;;;4933092;28;20054;-81
2021/06/21 03:52:32;;;;;;;20.35;5.43;;;;;;;;;;4935437;28;20491;-82
2021/06/21 03:55:08;;;;;;;9.35;4.35;;;;;;;;;;4927372;28;20080;-81
2021/06/21 03:57:37;;;;;;;9.27;5.57;;;;;;;;;;4935461;28;20191;-85
2021/06/21 04:00:09;;;;;;;14.77;4.90;;;;;;;;;;4934654;28;20138;-80
2021/06/21 04:02:36;;;;;;;16.15;4.38;;;;;;;;;;4937220;28;20056;-81
2021/06/21 04:05:04;;;;;;;14.48;4.45;;;;;;;;;;4927094;28;20058;-81
2021/06/21 04:07:31;;;;;;;12.27;5.60;;;;;;;;;;4936764;28;20051;-82
2021/06/21 04:10:02;;;;;;;10.98;4.93;;;;;;;;;;4937293;28;20091;-81
2021/06/21 04:12:32;;;;;;;20.27;5.50;;;;;;;;;;4938823;28;20880;-80
2021/06/21 04:15:00;;;;;;;30.38;6.07;;;;;;;;;;4931919;28;20056;-79
2021/06/21 04:17:27;;;;;;;24.17;6.53;;;;;;;;;;4931462;28;20060;-81
2021/06/21 04:19:54;;;;;;;33.38;7.75;;;;;;;;;;4939457;28;20134;-82
2021/06/21 04:22:21;;;;;;;27.15;7.65;;;;;;;;;;4929321;28;20160;-78
2021/06/21 04:24:49;;;;;;;19.55;7.70;;;;;;;;;;4929909;28;20728;-78
2021/06/21 04:27:16;;;;;;;23.35;7.00;;;;;;;;;;4924182;28;20075;-79
2021/06/21 04:29:43;;;;;;;52.55;9.25;;;;;;;;;;4934334;28;20131;-80
2021/06/21 04:32:11;;;;;;;110.18;11.02;;;;;;;;;;4946067;22;20105;-85
2021/06/21 04:37:41;;;;;;;42.83;7.97;;;;;;;;;;4993429;28;20145;-86
2021/06/21 04:40:10;;;;;;;21.17;5.20;;;;;;;;;;4994676;28;20070;-92
2021/06/21 04:42:37;;;;;;;18.83;4.68;;;;;;;;;;5006333;28;20053;-84
2021/06/21 04:45:08;;;;;;;13.73;4.30;;;;;;;;;;5015057;28;20089;-90
2021/06/21 04:47:35;;;;;;;10.80;3.78;;;;;;;;;;5016712;28;20125;-91
2021/06/21 04:50:05;;;;;;;10.35;3.92;;;;;;;;;;5010640;28;20152;-89
2021/06/21 04:52:34;;;;;;;7.75;3.80;;;;;;;;;;5020559;28;20144;-90
2021/06/21 04:55:01;;;;;;;10.98;3.88;;;;;;;;;;5015658;28;20093;-89
2021/06/21 04:57:29;;;;;;;15.07;4.97;;;;;;;;;;5012932;28;20129;-90
2021/06/21 04:59:57;;;;;;;11.77;4.75;;;;;;;;;;5016400;28;20121;-90
2021/06/21 05:02:24;;;;;;;14.65;5.68;;;;;;;;;;5016160;28;20049;-86
2021/06/21 05:04:52;;;;;;;9.15;4.18;;;;;;;;;;5019250;28;20057;-86
2021/06/21 05:07:20;;;;;;;11.05;4.60;;;;;;;;;;5017777;28;20112;-80
2021/06/21 05:09:53;;;;;;;13.05;5.63;;;;;;;;;;5021000;28;20371;-81
2021/06/21 05:12:20;;;;;;;17.65;4.18;;;;;;;;;;5021132;28;20463;-86
2021/06/21 05:14:47;;;;;;;13.45;4.65;;;;;;;;;;5019201;28;20049;-92
2021/06/21 05:17:14;;;;;;;15.90;5.13;;;;;;;;;;5002958;28;20053;-87
2021/06/21 05:19:43;;;;;;;10.25;4.85;;;;;;;;;;5020831;28;20053;-93
2021/06/21 05:22:11;;;;;;;13.95;4.85;;;;;;;;;;5018940;28;20053;-88
2021/06/21 05:24:39;;;;;;;14.65;4.75;;;;;;;;;;5011046;28;20073;-88
2021/06/21 05:27:07;;;;;;;10.45;4.05;;;;;;;;;;5017693;28;21392;-88
2021/06/21 05:29:34;;;;;;;9.95;4.22;;;;;;;;;;5016578;28;20133;-87
2021/06/21 05:32:06;;;;;;;9.88;4.32;;;;;;;;;;5013921;28;20100;-89
2021/06/21 05:34:33;;;;;;;7.25;3.80;;;;;;;;;;5018195;28;20128;-89
2021/06/21 05:37:00;;;;;;;9.52;3.80;;;;;;;;;;5032008;28;20140;-90
2021/06/21 05:39:28;;;;;;;6.90;3.95;;;;;;;;;;5029911;28;20042;-87
2021/06/21 05:41:55;;;;;;;9.30;4.07;;;;;;;;;;5038889;28;20146;-87
2021/06/21 05:44:24;;;;;;;9.77;3.33;;;;;;;;;;5034047;28;20145;-87
2021/06/21 05:46:51;;;;;;;6.40;3.55;;;;;;;;;;5041013;28;20290;-87
2021/06/21 05:49:18;;;;;;;7.70;3.78;;;;;;;;;;5031920;28;20072;-86
2021/06/21 05:51:47;;;;;;;5.38;3.25;;;;;;;;;;5036320;28;20121;-87
2021/06/21 05:54:14;;;;;;;5.90;3.03;;;;;;;;;;5038449;28;20082;-86
2021/06/21 05:56:41;;;;;;;4.63;2.65;;;;;;;;;;5039624;28;20728;-86
2021/06/21 05:59:08;;;;;;;6.97;3.28;;;;;;;;;;5039156;28;20184;-84
2021/06/21 06:01:35;;;;;;;6.78;3.03;;;;;;;;;;5038757;28;20055;-85
2021/06/21 06:04:03;;;;;;;7.05;3.33;;;;;;;;;;5030243;28;20053;-86
2021/06/21 06:06:31;;;;;;;4.30;3.05;;;;;;;;;;5035534;28;20112;-85
2021/06/21 06:08:58;;;;;;;7.78;3.30;;;;;;;;;;5036367;28;20140;-85
2021/06/21 06:11:25;;;;;;;6.13;3.30;;;;;;;;;;5037572;28;20084;-86
2021/06/21 06:13:53;;;;;;;9.40;4.28;;;;;;;;;;5037447;28;20762;-86
2021/06/21 06:16:20;;;;;;;7.32;3.05;;;;;;;;;;5040316;28;20053;-87
2021/06/21 06:18:47;;;;;;;5.18;3.25;;;;;;;;;;5036218;28;20445;-86
2021/06/21 06:21:17;;;;;;;9.20;3.20;;;;;;;;;;5034563;28;20754;-85
2021/06/21 06:23:44;;;;;;;7.80;3.60;;;;;;;;;;5031944;28;20068;-85
2021/06/21 06:26:15;;;;;;;8.02;3.63;;;;;;;;;;5032164;28;20100;-86
2021/06/21 06:28:42;;;;;;;8.73;3.90;;;;;;;;;;5034754;28;20138;-83
2021/06/21 06:31:09;;;;;;;8.73;3.80;;;;;;;;;;5037737;28;20132;-84
2021/06/21 06:33:37;;;;;;;9.18;4.35;;;;;;;;;;5036057;28;20124;-85
2021/06/21 06:36:04;;;;;;;11.57;4.72;;;;;;;;;;5038668;28;20120;-84
2021/06/21 06:38:32;;;;;;;6.78;4.00;;;;;;;;;;5036222;28;20525;-84
2021/06/21 06:41:03;;;;;;;9.10;3.65;;;;;;;;;;5038054;28;20057;-84
2021/06/21 06:43:37;;;;;;;10.52;3.88;;;;;;;;;;5039841;28;20516;-84
2021/06/21 06:46:04;;;;;;;7.70;4.20;;;;;;;;;;5034920;28;20603;-83
2021/06/21 06:48:32;;;;;;;10.20;4.80;;;;;;;;;;5036040;28;20049;-83
2021/06/21 06:50:59;;;;;;;11.95;3.97;;;;;;;;;;5035903;28;20086;-82
2021/06/21 06:53:52;;;;;;;7.88;3.65;;;;;;;;;;5036495;28;20151;-83
2021/06/21 06:59:00;;;;;;;;;;;;;;;;;;5038792;28;20132;-82
2021/06/21 07:01:28;;;;;;;7.55;4.30;;;;;;;;;;5034351;28;20420;-83
2021/06/21 07:03:56;;;;;;;5.63;3.45;;;;;;;;;;5034907;28;20063;-82
2021/06/21 07:06:23;;;;;;;11.85;3.85;;;;;;;;;;5036052;28;20080;-83
2021/06/21 07:08:50;;;;;;;7.28;4.05;;;;;;;;;;5036690;28;20077;-83
2021/06/21 07:11:19;;;;;;;9.00;3.65;;;;;;;;;;5033450;28;20132;-83
2021/06/21 07:13:46;;;;;;;7.18;4.22;;;;;;;;;;5035209;28;20084;-82
2021/06/21 07:16:13;;;;;;;6.50;3.35;;;;;;;;;;5038063;28;20120;-82
2021/06/21 07:18:40;;;;;;;7.28;3.53;;;;;;;;;;5032811;28;20061;-83
2021/06/21 07:21:08;;;;;;;8.63;3.70;;;;;;;;;;5034915;28;20045;-83
2021/06/21 07:23:36;;;;;;;6.28;3.08;;;;;;;;;;5033013;28;20124;-82
2021/06/21 07:26:05;;;;;;;6.97;3.38;;;;;;;;;;5039347;28;20124;-83
2021/06/21 07:28:34;;;;;;;8.32;3.22;;;;;;;;;;5032551;28;20075;-82
2021/06/21 07:31:02;;;;;;;7.50;3.95;;;;;;;;;;5033183;28;20136;-82
2021/06/21 07:33:31;;;;;;;8.52;2.92;;;;;;;;;;5036739;28;20048;-82
2021/06/21 07:35:58;;;;;;;4.25;2.58;;;;;;;;;;5032490;28;20073;-83
2021/06/21 07:38:26;;;;;;;6.53;2.75;;;;;;;;;;5032402;28;20869;-82
2021/06/21 07:40:54;;;;;;;3.97;2.63;;;;;;;;;;5031616;28;20135;-82
2021/06/21 07:43:21;;;;;;;7.90;2.65;;;;;;;;;;5034022;28;20131;-82
2021/06/21 07:45:48;;;;;;;8.27;2.67;;;;;;;;;;5033377;28;20136;-81
2021/06/21 07:48:15;;;;;;;4.40;2.50;;;;;;;;;;5030790;28;20746;-82
2021/06/21 07:50:45;;;;;;;4.90;2.75;;;;;;;;;;5032356;28;20466;-82
2021/06/21 07:53:13;;;;;;;4.18;2.63;;;;;;;;;;5036579;28;20049;-83
2021/06/21 07:55:41;;;;;;;5.07;3.05;;;;;;;;;;5036984;28;20045;-82
2021/06/21 07:58:08;;;;;;;4.90;2.30;;;;;;;;;;5030365;28;20703;-83
2021/06/21 08:00:39;;;;;;;12.00;2.70;;;;;;;;;;5033503;28;20156;-83
2021/06/21 08:03:09;;;;;;;5.38;2.50;;;;;;;;;;5028639;28;20054;-83
2021/06/21 08:05:37;;;;;;;5.25;2.63;;;;;;;;;;5033163;28;20139;-82
2021/06/21 08:08:07;;;;;;;10.10;2.95;;;;;;;;;;5029444;28;20060;-82
2021/06/21 08:10:34;;;;;;;7.70;2.75;;;;;;;;;;5037404;28;20385;-83
2021/06/21 08:13:02;;;;;;;6.70;2.45;;;;;;;;;;5036347;28;20061;-82
2021/06/21 08:15:31;;;;;;;13.65;2.95;;;;;;;;;;5036944;28;20037;-82
2021/06/21 08:17:58;;;;;;;6.18;2.67;;;;;;;;;;5038092;28;20465;-82
2021/06/21 08:20:25;;;;;;;18.90;3.30;;;;;;;;;;5035932;28;20132;-83
2021/06/21 08:22:53;;;;;;;9.85;2.72;;;;;;;;;;5038686;28;20056;-81
2021/06/21 08:25:20;;;;;;;3.72;2.38;;;;;;;;;;5034233;28;20052;-82
2021/06/21 08:27:48;;;;;;;6.18;2.88;;;;;;;;;;5033592;28;20149;-82
2021/06/21 08:30:16;;;;;;;8.57;2.88;;;;;;;;;;5035803;28;20072;-82
2021/06/21 08:32:43;;;;;;;9.30;2.63;;;;;;;;;;5036517;28;20749;-82
2021/06/21 08:35:11;;;;;;;10.95;3.33;;;;;;;;;;5028750;28;20045;-82
2021/06/21 08:37:38;;;;;;;6.50;2.72;;;;;;;;;;5034526;28;20073;-81
2021/06/21 08:40:07;;;;;;;10.60;3.28;;;;;;;;;;5036899;28;20047;-81
2021/06/21 08:42:35;;;;;;;8.80;2.47;;;;;;;;;;5034261;28;20052;-81
2021/06/21 08:45:03;;;;;;;5.88;3.05;;;;;;;;;;5038772;28;20140;-82
2021/06/21 08:47:31;;;;;;;6.93;2.92;;;;;;;;;;5031761;28;20139;-81
2021/06/21 08:50:00;;;;;;;9.57;2.30;;;;;;;;;;5035883;28;20566;-82
2021/06/21 08:52:27;;;;;;;8.90;3.00;;;;;;;;;;5037056;28;20072;-82
2021/06/21 08:55:03;;;;;;;5.35;2.42;;;;;;;;;;5038077;28;20114;-82
2021/06/21 08:57:34;;;;;;;10.45;2.78;;;;;;;;;;5037093;28;20072;-83
2021/06/21 09:00:06;;;;;;;5.88;2.53;;;;;;;;;;5035780;28;20196;-83
2021/06/21 09:02:33;;;;;;;9.02;3.22;;;;;;;;;;5034648;28;20137;-82
2021/06/21 09:05:01;;;;;;;12.95;4.32;;;;;;;;;;5035967;28;20053;-83
2021/06/21 09:07:28;;;;;;;7.85;2.88;;;;;;;;;;5037802;28;20580;-85
2021/06/21 09:09:57;;;;;;;8.68;2.67;;;;;;;;;;5037996;28;20114;-83
2021/06/21 09:12:26;;;;;;;9.15;3.08;;;;;;;;;;5035598;28;20072;-84
2021/06/21 09:14:55;;;;;;;9.48;2.83;;;;;;;;;;5037485;28;20048;-82
2021/06/21 09:17:24;;;;;;;19.40;3.25;;;;;;;;;;5037096;28;20045;-81
2021/06/21 09:19:56;;;;;;;8.98;2.90;;;;;;;;;;5037852;28;20122;-82
2021/06/21 09:22:28;;;;;;;8.55;3.00;;;;;;;;;;5037087;28;20132;-82
2021/06/21 09:24:56;;;;;;;10.52;3.33;;;;;;;;;;5027651;28;20110;-81
2021/06/21 09:27:23;;;;;;;8.38;2.70;;;;;;;;;;5034570;28;20128;-81
2021/06/21 09:29:53;;;;;;;8.55;3.67;;;;;;;;;;5034054;28;20144;-81
2021/06/21 09:32:40;;;;;;;10.35;3.25;;;;;;;;;;5033010;28;20054;-82
2021/06/21 09:35:26;;;;;;;9.10;3.10;;;;;;;;;;5032170;28;20545;-81
2021/06/21 09:37:54;;;;;;;12.13;3.15;;;;;;;;;;5033315;28;20196;-81
2021/06/21 09:40:25;;;;;;;6.13;2.58;;;;;;;;;;5035623;28;20087;-81
2021/06/21 09:42:52;;;;;;;9.10;3.85;;;;;;;;;;5033029;28;20087;-81
2021/06/21 09:45:20;;;;;;;4.20;3.00;;;;;;;;;;5035780;28;20115;-81
2021/06/21 09:47:47;;;;;;;10.68;3.00;;;;;;;;;;5035140;28;20131;-81
2021/06/21 09:50:22;;;;;;;10.68;3.78;;;;;;;;;;5030920;28;20151;-81
2021/06/21 09:52:56;;;;;;;5.07;2.95;;;;;;;;;;5035272;28;20111;-81
2021/06/21 09:55:25;;;;;;;8.77;4.00;;;;;;;;;;5034608;28;20137;-81
2021/06/21 09:58:02;;;;;;;13.75;3.20;;;;;;;;;;5030325;28;20073;-80
2021/06/21 10:00:29;;;;;;;11.48;3.33;;;;;;;;;;5030735;28;20045;-80
2021/06/21 10:03:08;;;;;;;6.70;3.50;;;;;;;;;;5033332;28;20119;-81
2021/06/21 10:05:39;;;;;;;9.55;3.78;;;;;;;;;;5034477;28;20432;-81
2021/06/21 10:08:07;;;;;;;7.70;3.60;;;;;;;;;;5028911;28;20041;-81
2021/06/21 10:10:35;;;;;;;10.77;4.70;;;;;;;;;;5034090;28;20123;-80
2021/06/21 10:13:03;;;;;;;12.18;3.60;;;;;;;;;;5031418;28;20724;-80
2021/06/21 10:15:30;;;;;;;8.82;3.60;;;;;;;;;;5031396;28;20048;-80
2021/06/21 10:17:58;;;;;;;13.27;4.65;;;;;;;;;;5033313;28;20048;-81
2021/06/21 10:20:25;;;;;;;11.88;4.50;;;;;;;;;;5036612;28;20140;-81
2021/06/21 10:22:55;;;;;;;8.68;3.80;;;;;;;;;;5040545;22;21117;-81
2021/06/21 10:25:22;;;;;;;12.77;5.40;;;;;;;;;;5041680;28;20045;-81
2021/06/21 10:27:49;;;;;;;15.25;4.53;;;;;;;;;;5048465;28;20080;-81
2021/06/21 10:30:18;;;;;;;9.43;4.78;;;;;;;;;;5030413;28;20156;-81
2021/06/21 10:32:48;;;;;;;13.45;3.92;;;;;;;;;;5027022;28;20148;-81
2021/06/21 10:35:15;;;;;;;12.40;4.40;;;;;;;;;;5043712;28;21081;-81
2021/06/21 10:37:54;;;;;;;7.93;4.72;;;;;;;;;;5044651;28;20135;-81
2021/06/21 10:40:21;;;;;;;10.05;4.93;;;;;;;;;;5047799;28;20044;-81
2021/06/21 10:42:49;;;;;;;9.82;4.90;;;;;;;;;;5045577;28;20056;-81
2021/06/21 10:45:20;;;;;;;13.98;4.93;;;;;;;;;;5026877;28;21397;-81
2021/06/21 10:47:49;;;;;;;7.95;4.72;;;;;;;;;;5029518;28;20051;-81
2021/06/21 10:50:16;;;;;;;11.73;4.70;;;;;;;;;;5049187;28;20135;-81
2021/06/21 10:52:49;;;;;;;16.55;5.18;;;;;;;;;;5047054;28;20135;-82
2021/06/21 10:55:23;;;;;;;12.18;5.80;;;;;;;;;;5028405;28;20604;-81
2021/06/21 10:57:56;;;;;;;9.80;4.90;;;;;;;;;;5029218;28;20048;-82
2021/06/21 11:00:24;;;;;;;16.50;4.88;;;;;;;;;;5032045;28;20128;-82
2021/06/21 11:02:52;;;;;;;9.27;5.38;;;;;;;;;;5052261;28;20474;-81
2021/06/21 11:05:33;;;;;;;13.10;5.90;;;;;;;;;;5049102;28;20118;-82
2021/06/21 11:08:17;;;;;;;9.63;4.93;;;;;;;;;;5038242;28;20114;-81
2021/06/21 11:10:45;;;;;;;10.95;5.60;;;;;;;;;;5038387;28;20128;-81
2021/06/21 11:13:35;;;;;;;11.75;6.18;;;;;;;;;;5028440;28;20131;-83
2021/06/21 11:16:21;;;;;;;8.75;5.60;;;;;;;;;;5028880;28;20091;-82
2021/06/21 11:18:57;;;;;;;20.85;5.70;;;;;;;;;;5048167;28;20082;-82
2021/06/21 11:21:24;;;;;;;10.50;5.22;;;;;;;;;;5046601;28;20071;-81
2021/06/21 11:23:55;;;;;;;9.35;5.15;;;;;;;;;;5039742;28;20169;-81
2021/06/21 11:26:42;;;;;;;11.10;5.32;;;;;;;;;;5019975;28;20792;-81
2021/06/21 11:29:27;;;;;;;14.27;5.47;;;;;;;;;;5011337;23;20286;-83
2021/06/21 11:31:56;;;;;;;;;;;;;;;;;;5001531;28;20129;-84
2021/06/21 11:34:43;;;;;;;14.73;4.63;;;;;;;;;;5005625;28;19928;-84
2021/06/21 11:37:29;;;;;;;13.25;4.90;;;;;;;;;;5021707;28;20127;-84
2021/06/21 11:40:12;;;;;;;8.10;4.47;;;;;;;;;;5007483;28;20162;-84
2021/06/21 11:42:40;;;;;;;9.20;4.75;;;;;;;;;;5005671;28;20053;-84
2021/06/21 11:45:07;;;;;;;9.88;4.38;;;;;;;;;;5027651;28;20506;-84
2021/06/21 11:47:38;;;;;;;11.38;4.35;;;;;;;;;;5008689;28;20194;-84
2021/06/21 11:50:08;;;;;;;8.93;4.63;;;;;;;;;;5010654;28;20079;-84
2021/06/21 11:52:35;;;;;;;5.65;3.78;;;;;;;;;;5008910;28;20067;-84
2021/06/21 11:55:17;;;;;;;8.70;3.55;;;;;;;;;;5010252;28;20083;-85
2021/06/21 11:57:45;;;;;;;7.68;4.35;;;;;;;;;;5009316;28;20081;-84
2021/06/21 12:00:14;;;;;;;8.75;4.13;;;;;;;;;;5008399;28;20081;-85
2021/06/21 12:02:42;;;;;;;14.52;4.30;;;;;;;;;;5024336;28;20127;-82
2021/06/21 12:05:11;;;;;;;6.22;3.97;;;;;;;;;;5024464;28;20085;-82
2021/06/21 12:07:41;;;;;;;9.52;3.92;;;;;;;;;;5008419;28;20140;-82
2021/06/21 12:10:09;;;;;;;9.70;4.22;;;;;;;;;;5019072;28;20042;-82
2021/06/21 12:12:37;;;;;;;6.75;3.47;;;;;;;;;;5027504;28;20049;-83
2021/06/21 12:15:05;;;;;;;8.70;3.83;;;;;;;;;;5010012;28;20738;-78
2021/06/21 12:17:33;;;;;;;10.25;4.57;;;;;;;;;;5006074;28;20037;-78
2021/06/21 12:22:36;;;;;;;9.63;4.90;;;;;;;;;;5034020;28;22617;-81
2021/06/21 12:25:07;;;;;;;14.27;5.25;;;;;;;;;;5044376;28;20066;-81
2021/06/21 12:27:34;;;;;;;10.85;5.13;;;;;;;;;;5044671;28;20131;-80
2021/06/21 12:30:01;;;;;;;7.30;4.43;;;;;;;;;;5035385;28;20060;-80
2021/06/21 12:33:03;;;;;;;8.15;4.47;;;;;;;;;;5028795;28;20496;-80
2021/06/21 12:35:30;;;;;;;10.98;4.90;;;;;;;;;;5041305;28;20049;-76
2021/06/21 12:37:57;;;;;;;15.43;4.50;;;;;;;;;;5041521;28;20045;-77
2021/06/21 12:40:26;;;;;;;8.45;5.25;;;;;;;;;;5040733;28;20187;-76
2021/06/21 12:42:53;;;;;;;9.57;4.65;;;;;;;;;;5042619;28;20072;-78
2021/06/21 12:45:22;;;;;;;7.07;4.70;;;;;;;;;;5040144;28;20055;-78
2021/06/21 12:47:51;;;;;;;18.35;4.78;;;;;;;;;;5039149;28;20131;-79
2021/06/21 12:50:19;;;;;;;11.30;4.47;;;;;;;;;;5041444;28;20129;-78
2021/06/21 12:56:18;;;;;;;14.60;4.60;;;;;;;;;;5033033;22;20052;-80
2021/06/21 12:58:45;;;;;;;7.20;4.47;;;;;;;;;;5008660;28;20059;-81
2021/06/21 13:01:26;;;;;;;9.52;4.85;;;;;;;;;;5026800;28;20144;-81
2021/06/21 13:03:55;;;;;;;9.38;4.95;;;;;;;;;;5009884;28;20258;-82
2021/06/21 13:06:28;;;;;;;7.10;5.40;;;;;;;;;;5026268;28;20516;-80
2021/06/21 13:09:17;;;;;;;12.40;5.80;;;;;;;;;;5027664;28;20049;-81
2021/06/21 13:12:01;;;;;;;7.53;4.63;;;;;;;;;;5007790;28;20052;-81
2021/06/21 13:14:36;;;;;;;10.18;5.22;;;;;;;;;;5010154;28;20047;-82
2021/06/21 13:17:10;;;;;;;9.88;4.97;;;;;;;;;;5026389;28;20144;-81
2021/06/21 13:19:52;;;;;;;9.25;5.35;;;;;;;;;;5021685;28;20053;-82
2021/06/21 13:25:16;;;;;;;12.93;5.70;;;;;;;;;;4952370;28;20500;-80
2021/06/21 13:28:00;;;;;;;12.02;6.32;;;;;;;;;;4954493;28;20636;-81
2021/06/21 13:30:29;;;;;;;6.70;5.10;;;;;;;;;;4952749;28;20137;-80
2021/06/21 13:32:57;;;;;;;13.52;6.18;;;;;;;;;;4953939;28;20505;-79
2021/06/21 13:35:24;;;;;;;15.95;4.95;;;;;;;;;;4952504;28;20043;-79
2021/06/21 13:37:52;;;;;;;12.02;5.55;;;;;;;;;;4936691;28;20320;-78
2021/06/21 13:40:26;;;;;;;8.25;5.63;;;;;;;;;;4954174;28;20108;-79
2021/06/21 13:42:57;;;;;;;14.55;5.38;;;;;;;;;;4936730;28;20077;-78
2021/06/21 13:45:29;;;;;;;8.73;4.95;;;;;;;;;;4953985;28;20575;-80
2021/06/21 13:48:00;;;;;;;9.95;5.90;;;;;;;;;;4957298;28;20079;-79
2021/06/21 13:50:29;;;;;;;11.23;5.72;;;;;;;;;;4965746;28;20133;-81
2021/06/21 13:52:59;;;;;;;10.80;5.78;;;;;;;;;;4967272;28;20133;-84
2021/06/21 13:55:38;;;;;;;9.60;5.38;;;;;;;;;;4966503;28;20085;-83
2021/06/21 13:58:06;;;;;;;8.18;5.82;;;;;;;;;;4967014;28;20135;-84
2021/06/21 14:00:37;;;;;;;8.82;5.70;;;;;;;;;;4965208;28;20661;-83
2021/06/21 14:03:27;;;;;;;7.85;4.78;;;;;;;;;;4964644;28;20129;-84
2021/06/21 14:05:58;;;;;;;11.05;5.70;;;;;;;;;;4964720;28;20169;-78
2021/06/21 14:08:27;;;;;;;14.15;5.40;;;;;;;;;;4938715;28;20086;-78
2021/06/21 14:10:57;;;;;;;12.40;5.47;;;;;;;;;;4958538;28;20487;-78
2021/06/21 14:13:25;;;;;;;15.18;5.63;;;;;;;;;;4966503;28;20068;-78
2021/06/21 14:15:52;;;;;;;11.50;5.63;;;;;;;;;;4959793;28;20518;-79
2021/06/21 14:18:21;;;;;;;14.57;6.03;;;;;;;;;;4956257;28;20142;-79
2021/06/21 14:20:49;;;;;;;11.93;5.53;;;;;;;;;;4943289;28;20146;-79
2021/06/21 14:23:16;;;;;;;11.50;6.55;;;;;;;;;;4944601;28;20089;-79
2021/06/21 14:25:43;;;;;;;11.63;6.13;;;;;;;;;;4961377;28;20148;-79
2021/06/21 14:28:11;;;;;;;10.90;6.13;;;;;;;;;;4995321;23;20082;-78
2021/06/21 14:37:13;;;;;;;11.55;6.32;;;;;;;;;;5016053;28;20075;-79
2021/06/21 14:39:41;;;;;;;10.15;6.15;;;;;;;;;;5028876;28;20052;-78
2021/06/21 14:42:12;;;;;;;12.15;6.00;;;;;;;;;;5015498;28;20065;-78
2021/06/21 14:44:40;;;;;;;11.45;6.18;;;;;;;;;;5030650;28;20319;-78
2021/06/21 14:47:07;;;;;;;11.05;6.38;;;;;;;;;;5014025;28;20127;-78
2021/06/21 14:52:25;;;;;;;9.85;6.00;;;;;;;;;;4989722;28;20083;-80
2021/06/21 14:54:53;;;;;;;10.15;5.22;;;;;;;;;;4993441;28;20129;-80
2021/06/21 14:57:20;;;;;;;12.27;5.88;;;;;;;;;;4984170;28;20141;-80
2021/06/21 14:59:47;;;;;;;9.30;6.07;;;;;;;;;;4988843;28;20056;-79
2021/06/21 15:02:15;;;;;;;7.88;5.72;;;;;;;;;;4994092;28;20703;-80
2021/06/21 15:08:09;;;;;;;9.30;5.80;;;;;;;;;;4997741;28;20484;-79
2021/06/21 15:13:26;;;;;;;12.27;5.50;;;;;;;;;;4991449;28;20045;-78
2021/06/21 15:15:55;;;;;;;13.15;5.45;;;;;;;;;;4985334;28;20093;-77
2021/06/21 15:18:26;;;;;;;11.60;5.63;;;;;;;;;;4983634;28;20068;-78
2021/06/21 15:20:55;;;;;;;14.82;6.50;;;;;;;;;;4996841;28;20057;-82
2021/06/21 15:23:22;;;;;;;18.27;5.07;;;;;;;;;;5006740;28;20589;-80